createdAt,value
2018-05-13T00:00:58.129Z,92.42
2018-05-13T00:03:27.797Z,92.04
2018-05-13T00:05:57.434Z,92.26
2018-05-13T00:08:27.074Z,92.15
2018-05-13T00:10:56.704Z,92.00
2018-05-13T00:13:26.359Z,92.22
2018-05-13T00:15:56.033Z,92.08
2018-05-13T00:18:25.664Z,91.25
2018-05-13T00:20:55.266Z,92.00
2018-05-13T00:23:24.929Z,91.25
2018-05-13T00:25:54.545Z,91.25
2018-05-13T00:28:24.206Z,91.35
2018-05-13T00:30:53.814Z,91.15
2018-05-13T00:33:23.450Z,91.03
2018-05-13T00:35:53.072Z,90.55
2018-05-13T00:38:22.696Z,90.71
2018-05-13T00:40:52.363Z,90.27
2018-05-13T00:43:21.980Z,89.91
2018-05-13T00:45:51.600Z,90.49
2018-05-13T00:48:21.228Z,90.01
2018-05-13T00:50:50.840Z,90.23
2018-05-13T00:53:20.490Z,89.62
2018-05-13T00:55:50.103Z,89.45
2018-05-13T00:58:19.732Z,89.28
2018-05-13T01:00:49.344Z,89.87
2018-05-13T01:03:18.973Z,89.19
2018-05-13T01:05:48.409Z,89.33
2018-05-13T01:08:18.094Z,89.04
2018-05-13T01:10:47.761Z,89.12
2018-05-13T01:13:17.386Z,89.36
2018-05-13T01:15:47.018Z,88.92
2018-05-13T01:18:16.690Z,89.38
2018-05-13T01:20:46.036Z,88.87
2018-05-13T01:23:15.646Z,88.71
2018-05-13T01:25:45.268Z,88.44
2018-05-13T01:28:14.990Z,88.86
2018-05-13T01:30:44.707Z,88.52
2018-05-13T01:33:14.322Z,88.77
2018-05-13T01:35:43.935Z,86.87
2018-05-13T01:38:13.550Z,81.77
2018-05-13T01:40:43.163Z,79.00
2018-05-13T01:43:12.828Z,78.21
2018-05-13T01:45:42.449Z,77.56
2018-05-13T01:48:11.827Z,77.81
2018-05-13T01:50:41.450Z,77.10
2018-05-13T01:53:11.088Z,76.46
2018-05-13T01:55:40.753Z,75.62
2018-05-13T01:58:10.378Z,76.52
2018-05-13T02:00:40.005Z,76.05
2018-05-13T02:03:09.644Z,75.35
2018-05-13T02:05:39.268Z,75.93
2018-05-13T02:08:08.948Z,75.49
2018-05-13T02:10:38.279Z,76.21
2018-05-13T02:13:07.928Z,75.19
2018-05-13T02:15:37.545Z,75.88
2018-05-13T02:18:07.166Z,76.08
2018-05-13T02:20:36.826Z,75.59
2018-05-13T02:23:06.444Z,74.96
2018-05-13T02:25:36.054Z,72.80
2018-05-13T02:28:05.698Z,71.43
2018-05-13T02:30:35.307Z,71.35
2018-05-13T02:33:04.969Z,70.63
2018-05-13T02:35:34.600Z,70.37
2018-05-13T02:38:03.980Z,71.10
2018-05-13T02:40:33.606Z,70.92
2018-05-13T02:43:03.231Z,70.99
2018-05-13T02:45:32.891Z,70.97
2018-05-13T02:48:02.510Z,71.19
2018-05-13T02:50:32.131Z,71.16
2018-05-13T02:53:01.776Z,71.15
2018-05-13T02:55:31.421Z,71.17
2018-05-13T02:58:01.082Z,71.10
2018-05-13T03:00:30.709Z,70.83
2018-05-13T03:03:00.353Z,71.03
2018-05-13T03:05:29.982Z,71.19
2018-05-13T03:07:59.683Z,71.20
2018-05-13T03:10:29.345Z,69.98
2018-05-13T03:12:58.961Z,70.03
2018-05-13T03:15:28.313Z,70.37
2018-05-13T03:17:57.940Z,69.78
2018-05-13T03:20:27.560Z,70.16
2018-05-13T03:22:57.235Z,69.57
2018-05-13T03:25:26.862Z,69.49
2018-05-13T03:27:56.488Z,70.38
2018-05-13T03:30:26.103Z,70.77
2018-05-13T03:32:55.722Z,70.41
2018-05-13T03:35:25.380Z,70.35
2018-05-13T03:37:54.991Z,70.59
2018-05-13T03:40:24.642Z,70.69
2018-05-13T03:42:54.259Z,70.17
2018-05-13T03:45:23.890Z,71.23
2018-05-13T03:47:53.542Z,71.34
2018-05-13T03:50:23.153Z,71.99
2018-05-13T03:52:52.763Z,71.87
2018-05-13T03:55:22.388Z,71.51
2018-05-13T03:57:52.010Z,71.53
2018-05-13T04:00:21.692Z,70.66
2018-05-13T04:02:51.049Z,71.11
2018-05-13T04:05:20.668Z,70.07
2018-05-13T04:11:17.607Z,68.68
2018-05-13T04:13:58.156Z,67.92
2018-05-13T04:16:27.572Z,65.98
2018-05-13T04:18:57.192Z,65.40
2018-05-13T04:21:26.816Z,65.20
2018-05-13T04:23:56.220Z,65.24
2018-05-13T04:26:25.827Z,64.81
2018-05-13T04:28:55.496Z,65.12
2018-05-13T04:31:25.117Z,65.30
2018-05-13T04:33:54.739Z,64.61
2018-05-13T04:36:24.402Z,64.48
2018-05-13T04:38:54.019Z,65.00
2018-05-13T04:41:23.627Z,64.18
2018-05-13T04:43:53.470Z,63.60
2018-05-13T04:46:23.083Z,63.36
2018-05-13T04:48:52.750Z,60.38
2018-05-13T04:51:22.382Z,59.00
2018-05-13T04:53:52.030Z,58.16
2018-05-13T04:56:21.660Z,56.77
2018-05-13T04:58:51.281Z,54.78
2018-05-13T05:01:20.970Z,51.67
2018-05-13T05:03:50.586Z,47.62
2018-05-13T05:06:20.207Z,45.52
2018-05-13T05:08:49.823Z,43.92
2018-05-13T05:11:19.449Z,40.82
2018-05-13T05:13:49.109Z,39.27
2018-05-13T05:16:18.727Z,38.71
2018-05-13T05:18:48.349Z,35.66
2018-05-13T05:21:17.970Z,35.14
2018-05-13T05:23:47.602Z,33.76
2018-05-13T05:26:17.271Z,33.38
2018-05-13T05:28:46.902Z,32.92
2018-05-13T05:31:16.552Z,33.07
2018-05-13T05:33:46.191Z,32.58
2018-05-13T05:36:15.834Z,32.05
2018-05-13T05:38:45.498Z,31.71
2018-05-13T05:41:15.200Z,32.22
2018-05-13T05:43:44.840Z,32.32
2018-05-13T05:46:14.500Z,31.71
2018-05-13T05:48:44.146Z,30.41
2018-05-13T05:51:13.833Z,29.59
2018-05-13T05:53:43.477Z,29.34
2018-05-13T05:56:13.693Z,29.50
2018-05-13T05:58:43.898Z,28.18
2018-05-13T06:01:14.173Z,24.68
2018-05-13T06:03:44.570Z,24.56
2018-05-13T06:06:14.762Z,24.81
2018-05-13T06:08:44.984Z,25.17
2018-05-13T06:11:15.199Z,25.15
2018-05-13T06:13:45.495Z,26.09
2018-05-13T06:16:15.759Z,24.31
2018-05-13T06:18:45.967Z,23.75
2018-05-13T06:21:16.219Z,23.74
2018-05-13T06:23:46.434Z,23.69
2018-05-13T06:26:16.642Z,23.10
2018-05-13T06:28:46.838Z,22.85
2018-05-13T06:31:17.041Z,23.28
2018-05-13T06:33:47.280Z,21.71
2018-05-13T06:36:17.487Z,22.72
2018-05-13T06:38:47.706Z,22.89
2018-05-13T06:41:17.969Z,23.61
2018-05-13T06:43:48.177Z,23.19
2018-05-13T06:46:18.427Z,22.17
2018-05-13T06:48:48.643Z,23.62
2018-05-13T06:51:18.940Z,22.81
2018-05-13T06:53:49.405Z,22.71
2018-05-13T06:56:19.716Z,22.98
2018-05-13T06:58:50.097Z,22.68
2018-05-13T07:01:20.348Z,22.43
2018-05-13T07:03:50.561Z,23.29
2018-05-13T07:06:20.792Z,22.21
2018-05-13T07:08:51.004Z,21.61
2018-05-13T07:11:21.212Z,20.59
2018-05-13T07:13:51.461Z,20.88
2018-05-13T07:16:21.743Z,21.92
2018-05-13T07:18:52.148Z,21.48
2018-05-13T07:21:22.343Z,22.04
2018-05-13T07:23:52.588Z,22.71
2018-05-13T07:26:24.028Z,21.43
2018-05-13T07:28:54.336Z,19.81
2018-05-13T07:31:25.564Z,21.63
2018-05-13T07:33:55.936Z,21.06
2018-05-13T07:36:26.144Z,20.59
2018-05-13T07:38:56.388Z,21.72
2018-05-13T07:41:26.701Z,21.62
2018-05-13T07:43:56.928Z,20.72
2018-05-13T07:46:27.120Z,21.42
2018-05-13T07:48:57.352Z,21.84
2018-05-13T07:51:27.591Z,21.80
2018-05-13T07:53:57.792Z,22.07
2018-05-13T07:56:28.050Z,19.42
2018-05-13T07:58:58.268Z,20.51
2018-05-13T08:01:28.523Z,20.28
2018-05-13T08:03:58.739Z,20.94
2018-05-13T08:06:28.940Z,21.64
2018-05-13T08:08:59.209Z,22.14
2018-05-13T08:11:29.408Z,20.71
2018-05-13T08:13:59.690Z,21.37
2018-05-13T08:16:29.817Z,22.92
2018-05-13T08:18:59.688Z,21.92
2018-05-13T08:21:29.954Z,22.83
2018-05-13T08:24:00.156Z,19.93
2018-05-13T08:26:30.402Z,21.29
2018-05-13T08:29:00.624Z,22.21
2018-05-13T08:31:30.867Z,21.63
2018-05-13T08:34:01.068Z,21.92
2018-05-13T08:36:31.284Z,21.86
2018-05-13T08:39:01.537Z,21.53
2018-05-13T08:41:31.465Z,21.40
2018-05-13T08:44:01.678Z,21.99
2018-05-13T08:46:31.912Z,22.16
2018-05-13T08:49:02.206Z,22.51
2018-05-13T08:51:32.465Z,21.54
2018-05-13T08:54:02.753Z,21.98
2018-05-13T08:56:32.889Z,21.53
2018-05-13T08:59:03.089Z,21.43
2018-05-13T09:01:33.295Z,20.37
2018-05-13T09:04:03.583Z,21.33
2018-05-13T09:06:33.812Z,22.24
2018-05-13T09:09:03.661Z,23.40
2018-05-13T09:11:34.020Z,24.55
2018-05-13T09:14:04.021Z,24.10
2018-05-13T09:16:33.992Z,25.35
2018-05-13T09:19:04.192Z,25.12
2018-05-13T09:21:34.488Z,26.42
2018-05-13T09:24:04.676Z,27.69
2018-05-13T09:26:34.413Z,27.12
2018-05-13T09:29:04.786Z,26.96
2018-05-13T09:31:34.451Z,28.73
2018-05-13T09:34:04.076Z,28.41
2018-05-13T09:36:33.701Z,27.92
2018-05-13T09:39:03.325Z,28.35
2018-05-13T09:41:32.948Z,28.85
2018-05-13T09:44:02.610Z,30.02
2018-05-13T09:46:31.956Z,29.90
2018-05-13T09:49:01.575Z,31.48
2018-05-13T09:51:31.264Z,29.90
2018-05-13T09:54:00.878Z,29.52
2018-05-13T09:56:30.537Z,29.83
2018-05-13T09:59:00.162Z,29.40
2018-05-13T10:01:29.808Z,29.52
2018-05-13T10:03:59.438Z,30.22
2018-05-13T10:06:29.102Z,29.63
2018-05-13T10:08:58.771Z,29.52
2018-05-13T10:11:28.634Z,29.10
2018-05-13T10:13:58.309Z,29.99
2018-05-13T10:16:28.002Z,29.43
2018-05-13T10:18:57.640Z,30.83
2018-05-13T10:21:27.269Z,31.53
2018-05-13T10:23:56.893Z,29.99
2018-05-13T10:26:26.236Z,30.56
2018-05-13T10:28:55.631Z,30.67
2018-05-13T10:31:25.264Z,31.00
2018-05-13T10:33:54.919Z,30.79
2018-05-13T10:36:25.143Z,30.91
2018-05-13T10:38:55.932Z,31.18
2018-05-13T10:41:25.552Z,30.45
2018-05-13T10:43:55.786Z,30.74
2018-05-13T10:46:25.413Z,30.46
2018-05-13T10:48:55.022Z,29.83
2018-05-13T10:51:25.283Z,30.26
2018-05-13T10:53:54.909Z,30.60
2018-05-13T10:56:24.556Z,31.85
2018-05-13T10:58:54.175Z,31.10
2018-05-13T11:01:24.423Z,30.71
2018-05-13T11:03:54.111Z,31.31
2018-05-13T11:06:23.730Z,29.75
2018-05-13T11:08:53.362Z,32.46
2018-05-13T11:11:23.004Z,30.47
2018-05-13T11:13:52.408Z,31.56
2018-05-13T11:16:22.173Z,32.60
2018-05-13T11:18:51.559Z,30.43
2018-05-13T11:21:21.938Z,30.77
2018-05-13T11:23:51.546Z,31.85
2018-05-13T11:26:21.184Z,31.35
2018-05-13T11:28:50.872Z,29.27
2018-05-13T11:31:20.496Z,29.83
2018-05-13T11:33:50.169Z,30.99
2018-05-13T11:36:19.967Z,32.22
2018-05-13T11:38:49.610Z,32.67
2018-05-13T11:41:19.267Z,33.05
2018-05-13T11:43:48.933Z,31.33
2018-05-13T11:46:18.570Z,31.58
2018-05-13T11:48:48.187Z,31.55
2018-05-13T11:51:18.012Z,31.85
2018-05-13T11:53:47.875Z,30.78
2018-05-13T11:56:17.499Z,29.83
2018-05-13T11:58:47.136Z,28.99
2018-05-13T12:01:16.760Z,30.24
2018-05-13T12:03:46.390Z,29.75
2018-05-13T12:06:16.078Z,30.72
2018-05-13T12:08:45.779Z,31.48
2018-05-13T12:11:16.422Z,30.32
2018-05-13T12:13:46.050Z,29.31
2018-05-13T12:16:15.688Z,29.39
2018-05-13T12:18:45.356Z,30.11
2018-05-13T12:21:14.988Z,29.64
2018-05-13T12:23:44.644Z,29.52
2018-05-13T12:26:14.281Z,29.84
2018-05-13T12:28:43.917Z,29.54
2018-05-13T12:31:13.542Z,30.38
2018-05-13T12:33:43.162Z,30.18
2018-05-13T12:36:12.826Z,30.35
2018-05-13T12:38:42.439Z,29.83
2018-05-13T12:41:12.054Z,31.28
2018-05-13T12:43:41.686Z,30.97
2018-05-13T12:46:11.336Z,29.11
2018-05-13T12:48:41.005Z,29.17
2018-05-13T12:51:10.629Z,30.19
2018-05-13T12:53:40.260Z,29.46
2018-05-13T12:56:09.973Z,29.61
2018-05-13T12:58:39.757Z,30.52
2018-05-13T13:01:09.423Z,31.51
2018-05-13T13:03:39.154Z,31.21
2018-05-13T13:06:08.898Z,29.45
2018-05-13T13:08:38.518Z,29.02
2018-05-13T13:11:08.056Z,29.99
2018-05-13T13:13:37.748Z,30.17
2018-05-13T13:16:07.151Z,29.39
2018-05-13T13:18:36.781Z,29.67
2018-05-13T13:21:06.425Z,29.72
2018-05-13T13:23:36.624Z,30.18
2018-05-13T13:26:06.308Z,30.46
2018-05-13T13:28:36.520Z,30.29
2018-05-13T13:31:06.143Z,29.00
2018-05-13T13:33:35.784Z,29.13
2018-05-13T13:36:05.763Z,29.14
2018-05-13T13:38:35.428Z,28.25
2018-05-13T13:41:05.170Z,29.61
2018-05-13T13:43:34.796Z,30.17
2018-05-13T13:46:04.429Z,30.26
2018-05-13T13:48:34.049Z,30.08
2018-05-13T13:51:03.710Z,29.75
2018-05-13T13:53:33.091Z,30.33
2018-05-13T13:56:02.897Z,29.04
2018-05-13T13:58:33.097Z,29.48
2018-05-13T14:01:02.746Z,29.24
2018-05-13T14:03:32.418Z,28.87
2018-05-13T14:06:02.041Z,30.14
2018-05-13T14:08:32.287Z,30.23
2018-05-13T14:11:01.660Z,30.65
2018-05-13T14:13:31.322Z,30.36
2018-05-13T14:16:01.011Z,30.25
2018-05-13T14:18:30.656Z,29.87
2018-05-13T14:21:00.327Z,30.21
2018-05-13T14:23:29.939Z,29.44
2018-05-13T14:25:59.565Z,30.04
2018-05-13T14:28:29.187Z,29.89
2018-05-13T14:30:58.803Z,30.35
2018-05-13T14:33:28.487Z,31.03
2018-05-13T14:35:57.504Z,30.97
2018-05-13T14:38:27.124Z,30.81
2018-05-13T14:40:56.867Z,30.21
2018-05-13T14:43:26.626Z,30.57
2018-05-13T14:45:56.278Z,29.71
2018-05-13T14:48:25.933Z,30.29
2018-05-13T14:50:55.570Z,30.25
2018-05-13T14:53:25.255Z,30.55
2018-05-13T14:55:55.408Z,30.61
2018-05-13T14:58:25.806Z,30.07
2018-05-13T15:00:55.213Z,30.45
2018-05-13T15:03:24.854Z,31.27
2018-05-13T15:05:54.262Z,31.33
2018-05-13T15:08:24.920Z,30.84
2018-05-13T15:10:59.532Z,31.50
2018-05-13T15:13:29.234Z,30.38
2018-05-13T15:15:58.899Z,30.54
2018-05-13T15:18:28.292Z,30.25
2018-05-13T15:20:57.970Z,31.28
2018-05-13T15:23:27.336Z,31.19
2018-05-13T15:25:57.013Z,31.31
2018-05-13T15:28:26.453Z,31.42
2018-05-13T15:30:56.079Z,31.86
2018-05-13T15:33:25.694Z,31.46
2018-05-13T15:35:55.311Z,31.84
2018-05-13T15:38:24.987Z,30.42
2018-05-13T15:40:54.368Z,30.76
2018-05-13T15:43:23.818Z,31.65
2018-05-13T15:45:53.623Z,30.42
2018-05-13T15:48:23.247Z,31.54
2018-05-13T15:50:52.926Z,31.04
2018-05-13T15:53:23.396Z,32.15
2018-05-13T15:55:53.396Z,32.31
2018-05-13T15:58:23.123Z,30.75
2018-05-13T16:00:52.843Z,31.04
2018-05-13T16:03:22.495Z,31.92
2018-05-13T16:05:52.132Z,31.25
2018-05-13T16:08:21.798Z,31.14
2018-05-13T16:10:51.512Z,30.30
2018-05-13T16:13:21.179Z,31.11
2018-05-13T16:15:50.532Z,30.89
2018-05-13T16:18:19.883Z,31.16
2018-05-13T16:20:49.584Z,31.62
2018-05-13T16:23:18.951Z,31.27
2018-05-13T16:25:48.331Z,31.51
2018-05-13T16:28:17.965Z,31.35
2018-05-13T16:30:47.608Z,31.54
2018-05-13T16:33:17.232Z,31.34
2018-05-13T16:35:46.848Z,31.88
2018-05-13T16:38:16.232Z,32.19
2018-05-13T16:40:45.576Z,32.35
2018-05-13T16:43:15.202Z,32.61
2018-05-13T16:45:44.547Z,32.75
2018-05-13T16:48:13.943Z,32.54
2018-05-13T16:50:43.602Z,32.82
2018-05-13T16:53:13.222Z,33.44
2018-05-13T16:55:42.836Z,33.15
2018-05-13T16:58:12.518Z,33.44
2018-05-13T17:00:41.860Z,33.28
2018-05-13T17:03:11.237Z,34.01
2018-05-13T17:05:40.880Z,33.79
2018-05-13T17:08:10.588Z,34.07
2018-05-13T17:10:39.941Z,34.39
2018-05-13T17:13:09.622Z,34.51
2018-05-13T17:15:39.215Z,34.38
2018-05-13T17:18:08.597Z,35.21
2018-05-13T17:20:38.026Z,35.64
2018-05-13T17:23:07.378Z,34.98
2018-05-13T17:25:36.735Z,34.72
2018-05-13T17:28:06.367Z,35.65
2018-05-13T17:30:35.700Z,34.78
2018-05-13T17:33:05.374Z,35.43
2018-05-13T17:35:34.993Z,34.97
2018-05-13T17:38:04.617Z,35.43
2018-05-13T17:40:34.018Z,35.70
2018-05-13T17:43:03.552Z,35.85
2018-05-13T17:45:33.256Z,36.61
2018-05-13T17:48:02.912Z,36.91
2018-05-13T17:50:32.272Z,36.14
2018-05-13T17:53:01.621Z,36.98
2018-05-13T17:55:30.963Z,36.58
2018-05-13T17:58:00.347Z,37.59
2018-05-13T18:00:29.730Z,37.13
2018-05-13T18:02:59.449Z,37.36
2018-05-13T18:05:29.045Z,38.30
2018-05-13T18:07:58.405Z,38.27
2018-05-13T18:10:28.394Z,38.46
2018-05-13T18:12:57.851Z,38.20
2018-05-13T18:15:27.210Z,39.23
2018-05-13T18:17:56.601Z,39.28
2018-05-13T18:20:26.240Z,39.55
2018-05-13T18:22:55.628Z,39.67
2018-05-13T18:25:25.187Z,39.97
2018-05-13T18:27:54.644Z,40.39
2018-05-13T18:30:24.143Z,40.91
2018-05-13T18:32:53.501Z,41.27
2018-05-13T18:35:22.880Z,41.37
2018-05-13T18:37:52.243Z,41.49
2018-05-13T18:40:21.587Z,41.95
2018-05-13T18:42:50.936Z,42.29
2018-05-13T18:45:20.338Z,42.60
2018-05-13T18:47:49.720Z,42.60
2018-05-13T18:50:19.133Z,43.12
2018-05-13T18:52:48.652Z,43.52
2018-05-13T18:55:17.670Z,44.50
2018-05-13T18:57:47.014Z,44.82
2018-05-13T19:00:16.414Z,45.26
2018-05-13T19:02:45.771Z,45.81
2018-05-13T19:05:15.116Z,46.17
2018-05-13T19:07:44.456Z,46.50
2018-05-13T19:10:13.792Z,47.28
2018-05-13T19:12:43.467Z,47.55
2018-05-13T19:15:12.841Z,47.96
2018-05-13T19:17:42.178Z,48.06
2018-05-13T19:20:11.526Z,48.29
2018-05-13T19:22:40.872Z,48.13
2018-05-13T19:25:10.271Z,48.50
2018-05-13T19:27:39.632Z,48.09
2018-05-13T19:30:08.640Z,48.71
2018-05-13T19:32:37.987Z,48.18
2018-05-13T19:35:07.355Z,48.31
2018-05-13T19:37:36.811Z,48.53
2018-05-13T19:40:06.378Z,49.35
2018-05-13T19:42:35.743Z,48.58
2018-05-13T19:45:05.080Z,48.99
2018-05-13T19:47:34.442Z,49.33
2018-05-13T19:50:03.836Z,49.38
2018-05-13T19:52:33.170Z,49.26
2018-05-13T19:55:02.516Z,49.42
2018-05-13T19:57:31.880Z,49.35
2018-05-13T20:00:01.212Z,49.36
2018-05-13T20:02:30.586Z,49.40
2018-05-13T20:04:59.933Z,49.98
2018-05-13T20:07:29.279Z,50.14
2018-05-13T20:09:58.611Z,49.96
2018-05-13T20:12:27.966Z,50.43
2018-05-13T20:14:57.430Z,51.16
2018-05-13T20:17:26.777Z,51.95
2018-05-13T20:19:56.142Z,52.48
2018-05-13T20:22:25.499Z,52.82
2018-05-13T20:24:54.865Z,53.30
2018-05-13T20:27:24.260Z,53.69
2018-05-13T20:29:53.615Z,54.38
2018-05-13T20:32:22.976Z,54.71
2018-05-13T20:34:52.321Z,55.33
2018-05-13T20:37:21.662Z,55.97
2018-05-13T20:39:51.060Z,55.94
2018-05-13T20:42:20.408Z,56.09
2018-05-13T20:44:49.765Z,55.99
2018-05-13T20:47:19.111Z,56.36
2018-05-13T20:49:48.476Z,56.29
2018-05-13T20:52:17.863Z,56.63
2018-05-13T20:54:47.213Z,56.96
2018-05-13T20:57:16.588Z,57.16
2018-05-13T20:59:45.942Z,57.04
2018-05-13T21:02:16.607Z,57.23
2018-05-13T21:04:46.043Z,57.02
2018-05-13T21:07:15.435Z,57.29
2018-05-13T21:09:44.784Z,57.39
2018-05-13T21:12:14.140Z,57.88
2018-05-13T21:14:43.541Z,57.69
2018-05-13T21:17:12.962Z,58.14
2018-05-13T21:19:42.345Z,57.58
2018-05-13T21:22:11.682Z,57.74
2018-05-13T21:24:45.067Z,57.57
2018-05-13T21:27:14.413Z,57.22
2018-05-13T21:29:43.798Z,57.35
2018-05-13T21:32:13.188Z,57.48
2018-05-13T21:34:42.544Z,57.46
2018-05-13T21:37:11.903Z,57.70
2018-05-13T21:39:41.254Z,57.94
2018-05-13T21:42:10.651Z,58.13
2018-05-13T21:44:40.000Z,58.00
2018-05-13T21:47:09.427Z,57.68
2018-05-13T21:49:38.922Z,57.61
2018-05-13T21:52:08.276Z,56.73
2018-05-13T21:54:37.762Z,56.21
2018-05-13T21:57:07.239Z,55.58
2018-05-13T21:59:36.879Z,55.00
2018-05-13T22:02:05.674Z,54.82
2018-05-13T22:04:35.062Z,53.30
2018-05-13T22:07:04.216Z,53.01
2018-05-13T22:09:33.590Z,52.19
2018-05-13T22:12:02.938Z,51.78
2018-05-13T22:14:32.298Z,51.37
2018-05-13T22:17:01.731Z,51.10
2018-05-13T22:19:31.271Z,50.59
2018-05-13T22:22:00.924Z,50.45
2018-05-13T22:24:30.289Z,50.29
2018-05-13T22:26:59.924Z,50.04
2018-05-13T22:29:29.272Z,49.91
2018-05-13T22:31:58.940Z,50.02
2018-05-13T22:34:28.274Z,49.94
2018-05-13T22:36:57.626Z,50.10
2018-05-13T22:39:27.006Z,50.22
2018-05-13T22:41:56.646Z,50.43
2018-05-13T22:44:26.030Z,50.64
2018-05-13T22:46:55.664Z,50.98
2018-05-13T22:49:25.014Z,51.20
2018-05-13T22:51:54.342Z,51.49
2018-05-13T22:54:23.687Z,51.68
2018-05-13T22:56:53.356Z,51.97
2018-05-13T22:59:22.762Z,52.23
2018-05-13T23:01:52.127Z,52.41
2018-05-13T23:04:21.761Z,52.66
2018-05-13T23:06:51.109Z,52.77
2018-05-13T23:09:20.780Z,53.04
2018-05-13T23:11:50.413Z,53.30
2018-05-13T23:14:20.035Z,53.46
2018-05-13T23:16:49.634Z,53.68
2018-05-13T23:19:19.252Z,53.88
2018-05-13T23:21:48.909Z,54.09
2018-05-13T23:24:18.541Z,54.12
2018-05-13T23:26:48.212Z,54.39
2018-05-13T23:29:17.904Z,54.54
2018-05-13T23:31:47.511Z,54.80
2018-05-13T23:34:17.173Z,55.03
2018-05-13T23:36:46.796Z,55.45
2018-05-13T23:39:16.409Z,55.80
2018-05-13T23:41:45.755Z,56.09
2018-05-13T23:44:15.380Z,56.45
2018-05-13T23:46:45.034Z,56.61
2018-05-13T23:49:14.651Z,56.77
2018-05-13T23:51:44.308Z,57.04
2018-05-13T23:54:13.926Z,57.31
2018-05-13T23:56:43.544Z,57.74
2018-05-13T23:59:13.213Z,58.00
